Time;durP1;ratioP1;P1;durP2;ratioP2;P2;SDS_P1;SDS_P2;PMS_P1;PMS_P2;Temp;Humidity;BMP_temperature;BMP_pressure;BME280_temperature;BME280_humidity;BME280_pressure;Samples;Min_cycle;Max_cycle;Signal;HPM_P1;HPM_P2
2021/12/12 00:02:44;;;;;;;16.90;8.47;;;-0.50;99.90;;;;;;4997216;28;20461;-57
2021/12/12 00:05:15;;;;;;;14.40;8.07;;;-0.60;99.90;;;;;;4984187;28;20845;-56
2021/12/12 00:07:41;;;;;;;15.70;8.20;;;-0.60;99.90;;;;;;4992779;28;20874;-55
2021/12/12 00:10:16;;;;;;;15.87;8.40;;;-0.60;99.90;;;;;;4996242;28;20442;-64
2021/12/12 00:12:46;;;;;;;11.83;7.30;;;-0.70;99.90;;;;;;4981473;28;20544;-57
2021/12/12 00:15:15;;;;;;;17.70;8.07;;;-0.60;99.90;;;;;;4986601;28;20438;-57
2021/12/12 00:17:42;;;;;;;20.97;8.07;;;-0.70;99.90;;;;;;4984143;28;20528;-57
2021/12/12 00:20:10;;;;;;;19.50;9.17;;;-0.70;99.90;;;;;;4987049;28;20478;-58
2021/12/12 00:22:36;;;;;;;19.60;9.20;;;-0.70;99.90;;;;;;4988733;28;20544;-57
2021/12/12 00:25:04;;;;;;;23.50;9.83;;;-0.70;99.90;;;;;;4997495;28;20441;-56
2021/12/12 00:27:30;;;;;;;29.27;10.07;;;-0.70;99.90;;;;;;4991351;28;20434;-55
2021/12/12 00:30:02;;;;;;;24.33;9.17;;;-0.70;99.90;;;;;;4997331;28;20839;-58
2021/12/12 00:32:28;;;;;;;35.90;9.60;;;-0.70;99.90;;;;;;4982081;28;20221;-56
2021/12/12 00:34:59;;;;;;;15.03;7.57;;;-0.70;99.90;;;;;;4989069;28;20438;-57
2021/12/12 00:37:25;;;;;;;15.33;8.30;;;-0.70;99.90;;;;;;4979776;28;20438;-60
2021/12/12 00:39:55;;;;;;;15.80;8.60;;;-0.70;99.90;;;;;;4981993;28;20608;-54
2021/12/12 00:42:24;;;;;;;19.20;8.80;;;-0.60;99.90;;;;;;5000742;28;21002;-55
2021/12/12 00:44:58;;;;;;;16.77;8.57;;;-0.60;99.90;;;;;;4996137;28;20450;-55
2021/12/12 00:47:24;;;;;;;16.10;8.50;;;-0.60;99.90;;;;;;4995848;28;20427;-54
2021/12/12 00:49:51;;;;;;;26.03;7.93;;;-0.60;99.90;;;;;;4981875;28;20437;-56
2021/12/12 00:52:18;;;;;;;18.67;8.80;;;-0.60;99.90;;;;;;4980938;28;20450;-55
2021/12/12 00:54:45;;;;;;;13.93;8.13;;;-0.60;99.90;;;;;;4980889;28;20434;-58
2021/12/12 00:57:16;;;;;;;14.03;7.83;;;-0.60;99.90;;;;;;4977919;28;20536;-57
2021/12/12 00:59:44;;;;;;;13.27;7.70;;;-0.60;99.90;;;;;;4983687;28;20459;-57
2021/12/12 01:02:15;;;;;;;19.00;9.07;;;-0.60;99.90;;;;;;4977668;28;20453;-57
2021/12/12 01:04:45;;;;;;;16.10;9.23;;;-0.60;99.90;;;;;;4998687;28;20432;-58
2021/12/12 01:07:16;;;;;;;20.03;9.30;;;-0.50;99.90;;;;;;4984736;28;20763;-58
2021/12/12 01:09:57;;;;;;;16.23;8.30;;;-0.50;99.90;;;;;;4981025;28;20869;-58
2021/12/12 01:12:30;;;;;;;20.47;8.00;;;-0.50;99.90;;;;;;4995237;28;21078;-56
2021/12/12 01:15:30;;;;;;;13.57;7.53;;;-0.50;99.90;;;;;;4980381;28;21396;-56
2021/12/12 01:17:59;;;;;;;12.27;7.03;;;-0.50;99.90;;;;;;4981188;28;20600;-58
2021/12/12 01:20:50;;;;;;;15.57;7.80;;;-0.60;99.90;;;;;;4981160;28;20486;-56
2021/12/12 01:23:25;;;;;;;14.30;8.13;;;-0.50;99.90;;;;;;4992459;28;20645;-57
2021/12/12 01:25:52;;;;;;;17.27;8.10;;;-0.50;99.90;;;;;;5016935;28;20549;-57
2021/12/12 01:28:22;;;;;;;17.77;8.07;;;-0.40;99.90;;;;;;5004208;28;20447;-56
2021/12/12 01:30:49;;;;;;;15.27;8.17;;;-0.40;99.90;;;;;;5010594;28;20464;-56
2021/12/12 01:33:31;;;;;;;12.80;7.67;;;-0.40;99.90;;;;;;4984003;28;20446;-56
2021/12/12 01:35:57;;;;;;;13.17;7.33;;;-0.40;99.90;;;;;;5002260;28;20450;-58
2021/12/12 01:41:07;;;;;;;17.83;8.73;;;-0.50;99.90;;;;;;4981881;28;20484;-58
2021/12/12 01:43:45;;;;;;;14.40;7.77;;;-0.50;99.90;;;;;;4987911;28;20442;-56
2021/12/12 01:46:32;;;;;;;14.20;7.20;;;-0.50;99.90;;;;;;4981980;28;20185;-58
2021/12/12 01:49:09;;;;;;;13.80;7.20;;;-0.60;99.90;;;;;;5002249;28;20437;-58
2021/12/12 01:51:38;;;;;;;14.03;8.00;;;-0.50;99.90;;;;;;4997699;28;20794;-56
2021/12/12 01:54:07;;;;;;;14.97;7.17;;;-0.50;99.90;;;;;;4979097;28;20446;-57
2021/12/12 01:56:50;;;;;;;12.50;7.70;;;-0.50;99.90;;;;;;4991579;28;20541;-55
2021/12/12 01:59:19;;;;;;;11.90;7.10;;;-0.50;99.90;;;;;;4993399;28;20472;-56
2021/12/12 02:01:52;;;;;;;12.97;7.33;;;-0.50;99.90;;;;;;4996631;28;20465;-57
2021/12/12 02:04:24;;;;;;;13.03;7.27;;;-0.50;99.90;;;;;;4995554;28;20442;-57
2021/12/12 02:06:51;;;;;;;13.13;6.80;;;-0.40;99.90;;;;;;4983056;28;20435;-57
2021/12/12 02:09:19;;;;;;;15.83;7.67;;;-0.40;99.90;;;;;;4993940;28;20445;-56
2021/12/12 02:11:47;;;;;;;14.73;7.60;;;-0.40;99.90;;;;;;4994487;28;20565;-55
2021/12/12 02:14:16;;;;;;;14.60;7.83;;;-0.40;99.90;;;;;;4994345;28;20747;-55
2021/12/12 02:16:50;;;;;;;15.70;7.63;;;-0.40;99.90;;;;;;4995797;28;21653;-54
2021/12/12 02:19:27;;;;;;;18.40;7.80;;;-0.40;99.90;;;;;;4981798;28;20501;-58
2021/12/12 02:22:16;;;;;;;12.43;6.87;;;-0.40;99.90;;;;;;4976277;28;20855;-57
2021/12/12 02:35:52;;;;;;;12.27;6.87;;;-0.30;99.90;;;;;;4982183;28;20448;-56
2021/12/12 02:38:23;;;;;;;12.77;7.30;;;-0.30;99.90;;;;;;4993805;28;20532;-55
2021/12/12 02:41:00;;;;;;;11.87;7.27;;;-0.30;99.90;;;;;;4996073;28;20458;-56
2021/12/12 02:43:28;;;;;;;13.80;7.40;;;-0.30;99.90;;;;;;4995577;28;20442;-55
2021/12/12 02:45:56;;;;;;;12.40;7.20;;;-0.40;99.90;;;;;;4993592;28;20445;-57
2021/12/12 02:48:29;;;;;;;12.03;7.57;;;-0.40;99.90;;;;;;4994168;28;20545;-55
2021/12/12 02:50:58;;;;;;;12.97;7.50;;;-0.40;99.90;;;;;;4997026;28;20457;-56
2021/12/12 02:53:34;;;;;;;12.67;7.20;;;-0.40;99.90;;;;;;5006726;28;20674;-56
2021/12/12 02:56:10;;;;;;;9.83;7.03;;;-0.40;99.90;;;;;;4999090;28;20448;-56
2021/12/12 02:58:37;;;;;;;12.50;7.30;;;-0.40;99.90;;;;;;5000538;28;20986;-57
2021/12/12 03:01:50;;;;;;;13.00;7.63;;;-0.40;99.90;;;;;;4979697;28;20477;-57
2021/12/12 03:04:16;;;;;;;13.37;7.20;;;-0.50;99.90;;;;;;4993986;28;20435;-56
2021/12/12 03:06:43;;;;;;;14.03;8.03;;;-0.50;99.90;;;;;;4994932;28;20844;-55
2021/12/12 03:09:15;;;;;;;14.60;7.70;;;-0.50;99.90;;;;;;4998486;28;20976;-55
2021/12/12 03:11:41;;;;;;;14.30;7.67;;;-0.50;99.90;;;;;;4993705;28;21112;-57
2021/12/12 03:14:07;;;;;;;13.00;7.37;;;-0.60;99.90;;;;;;4996673;28;20917;-56
2021/12/12 03:16:34;;;;;;;12.53;6.87;;;-0.60;99.90;;;;;;4987462;28;20473;-56
2021/12/12 03:19:00;;;;;;;12.60;7.20;;;-0.70;99.90;;;;;;4981066;28;21028;-57
2021/12/12 03:21:32;;;;;;;12.57;7.03;;;-0.70;99.90;;;;;;4979350;28;20580;-58
2021/12/12 03:24:10;;;;;;;12.00;7.07;;;-0.80;99.90;;;;;;4984105;28;20452;-57
2021/12/12 03:26:37;;;;;;;12.90;7.30;;;-0.80;99.90;;;;;;4982049;28;20445;-56
2021/12/12 03:29:05;;;;;;;12.20;7.33;;;-0.90;99.90;;;;;;4999694;28;20482;-55
2021/12/12 03:31:35;;;;;;;9.97;6.20;;;-0.90;99.90;;;;;;4997920;28;20457;-56
2021/12/12 03:34:05;;;;;;;9.40;6.53;;;-0.90;99.90;;;;;;4980600;28;20772;-57
2021/12/12 03:36:31;;;;;;;13.23;7.40;;;-1.00;99.90;;;;;;4991530;28;20847;-56
2021/12/12 03:39:05;;;;;;;15.60;6.70;;;-1.00;99.90;;;;;;4983652;28;20452;-56
2021/12/12 03:41:34;;;;;;;16.83;7.47;;;-1.00;99.90;;;;;;4982848;28;21010;-56
2021/12/12 03:44:05;;;;;;;13.90;6.87;;;-1.00;99.90;;;;;;4992849;28;20465;-56
2021/12/12 03:46:32;;;;;;;10.17;6.30;;;-1.00;99.90;;;;;;4983522;28;20542;-56
2021/12/12 03:48:57;;;;;;;13.77;7.30;;;-1.00;99.90;;;;;;4983329;28;20474;-56
2021/12/12 03:51:26;;;;;;;12.37;6.87;;;-1.00;99.90;;;;;;4998515;28;20492;-58
2021/12/12 03:53:54;;;;;;;12.23;7.57;;;-1.00;99.90;;;;;;4999587;28;20591;-57
2021/12/12 03:56:20;;;;;;;11.80;5.77;;;-0.90;99.90;;;;;;4974665;28;20945;-58
2021/12/12 03:58:47;;;;;;;11.23;6.93;;;-1.00;99.90;;;;;;4987866;28;20423;-56
2021/12/12 04:01:25;;;;;;;9.30;5.50;;;-1.00;99.90;;;;;;4980578;28;20976;-55
2021/12/12 04:03:54;;;;;;;10.27;5.97;;;-1.00;99.90;;;;;;5001012;28;20446;-57
2021/12/12 04:06:22;;;;;;;9.20;5.57;;;-1.00;99.90;;;;;;4983567;28;20442;-55
2021/12/12 04:08:50;;;;;;;13.13;6.27;;;-1.00;99.90;;;;;;5008831;28;20888;-60
2021/12/12 04:11:20;;;;;;;9.10;5.53;;;-0.90;99.90;;;;;;5001353;28;20450;-56
2021/12/12 04:13:48;;;;;;;9.33;5.87;;;-0.90;99.90;;;;;;5002771;28;20426;-58
2021/12/12 04:16:15;;;;;;;8.90;5.60;;;-0.90;99.90;;;;;;5002218;28;20433;-57
2021/12/12 04:18:41;;;;;;;13.10;6.53;;;-1.00;99.90;;;;;;4982955;28;20434;-57
2021/12/12 04:21:07;;;;;;;8.97;5.23;;;-1.00;99.90;;;;;;4985404;28;20474;-57
2021/12/12 04:23:33;;;;;;;10.70;5.60;;;-1.00;99.90;;;;;;4985892;28;20889;-57
2021/12/12 04:26:18;;;;;;;8.00;4.97;;;-1.00;99.90;;;;;;5002108;28;20768;-58
2021/12/12 04:28:53;;;;;;;8.70;5.13;;;-1.00;99.90;;;;;;4986240;28;20437;-58
2021/12/12 04:31:18;;;;;;;9.17;5.90;;;-1.00;99.90;;;;;;4985601;28;20516;-56
2021/12/12 04:33:44;;;;;;;8.30;5.47;;;-1.00;99.90;;;;;;4985823;28;20563;-58
2021/12/12 04:36:10;;;;;;;9.97;6.40;;;-1.00;99.90;;;;;;5001575;28;20186;-56
2021/12/12 04:38:35;;;;;;;12.30;6.80;;;-1.00;99.90;;;;;;4986948;28;20495;-57
2021/12/12 04:41:01;;;;;;;12.13;6.80;;;-1.00;99.90;;;;;;4986095;28;20233;-56
2021/12/12 04:43:27;;;;;;;11.40;6.47;;;-1.00;99.90;;;;;;4992897;28;20180;-57
2021/12/12 04:46:02;;;;;;;14.60;6.50;;;-1.00;99.90;;;;;;4986204;28;20277;-56
2021/12/12 04:51:48;;;;;;;13.23;6.47;;;-0.90;99.90;;;;;;4987271;28;20480;-57
2021/12/12 04:54:38;;;;;;;10.87;6.20;;;-0.90;99.90;;;;;;5002497;28;20924;-58
2021/12/12 04:57:35;;;;;;;13.30;6.73;;;-0.90;99.90;;;;;;5000244;28;20944;-57
2021/12/12 05:00:12;;;;;;;11.70;6.23;;;-0.80;99.90;;;;;;4997311;28;20493;-56
2021/12/12 05:02:48;;;;;;;9.50;5.33;;;-0.80;99.90;;;;;;4986905;28;20961;-57
2021/12/12 05:05:34;;;;;;;11.13;6.13;;;-0.80;99.90;;;;;;4985616;28;20557;-63
2021/12/12 05:08:14;;;;;;;8.53;5.60;;;-0.80;99.90;;;;;;5002297;28;20937;-56
2021/12/12 05:11:09;;;;;;;8.83;6.27;;;-0.80;99.90;;;;;;4985013;28;20477;-58
2021/12/12 05:13:50;;;;;;;11.97;6.20;;;-0.80;99.90;;;;;;4999508;28;20444;-56
2021/12/12 05:16:22;;;;;;;12.43;6.60;;;-0.80;99.90;;;;;;4987330;28;20625;-57
2021/12/12 05:18:51;;;;;;;10.30;5.80;;;-0.80;99.90;;;;;;4986668;28;20525;-55
2021/12/12 05:21:25;;;;;;;13.80;6.80;;;-0.80;99.90;;;;;;5000726;28;20875;-55
2021/12/12 05:23:55;;;;;;;10.23;5.80;;;-0.80;99.90;;;;;;4986176;28;20436;-57
2021/12/12 05:26:26;;;;;;;9.37;5.60;;;-0.80;99.90;;;;;;4983455;28;20457;-58
2021/12/12 05:29:23;;;;;;;13.80;6.23;;;-0.80;99.90;;;;;;4998182;28;20561;-56
2021/12/12 05:31:53;;;;;;;10.43;5.83;;;-0.80;99.90;;;;;;4995928;28;20758;-55
2021/12/12 05:34:26;;;;;;;11.67;5.90;;;-0.80;99.90;;;;;;5001189;28;20441;-57
2021/12/12 05:36:53;;;;;;;11.87;5.73;;;-0.80;99.90;;;;;;5002212;28;20438;-55
2021/12/12 05:39:20;;;;;;;9.93;5.57;;;-0.80;99.90;;;;;;4997696;28;20504;-56
2021/12/12 05:41:47;;;;;;;13.27;6.20;;;-0.80;99.90;;;;;;4996795;28;20463;-57
2021/12/12 05:44:14;;;;;;;10.30;5.70;;;-0.80;99.90;;;;;;4982864;28;20694;-57
2021/12/12 05:46:41;;;;;;;12.87;6.33;;;-0.80;99.90;;;;;;5001866;28;20430;-55
2021/12/12 05:49:07;;;;;;;12.70;6.37;;;-0.80;99.90;;;;;;4984934;28;20436;-57
2021/12/12 05:51:35;;;;;;;9.03;5.40;;;-0.90;99.90;;;;;;4993593;28;20461;-57
2021/12/12 05:54:02;;;;;;;10.93;5.50;;;-0.90;99.90;;;;;;4987449;28;20445;-56
2021/12/12 05:56:31;;;;;;;9.73;5.53;;;-0.90;99.90;;;;;;4983213;28;20525;-57
2021/12/12 05:58:58;;;;;;;13.40;7.50;;;-1.00;99.90;;;;;;4985014;28;20432;-55
2021/12/12 06:01:26;;;;;;;13.87;7.33;;;-1.00;99.90;;;;;;4983470;28;20557;-57
2021/12/12 06:03:53;;;;;;;10.77;6.13;;;-1.10;99.90;;;;;;4984054;28;20438;-56
2021/12/12 06:06:21;;;;;;;12.90;6.83;;;-1.20;99.90;;;;;;4984394;28;20855;-56
2021/12/12 06:08:48;;;;;;;11.10;7.03;;;-1.20;99.90;;;;;;5000631;28;20548;-56
2021/12/12 06:11:17;;;;;;;16.50;7.80;;;-1.30;99.90;;;;;;4983629;28;20471;-54
2021/12/12 06:13:44;;;;;;;12.73;8.10;;;-1.30;99.90;;;;;;4998607;28;20749;-55
2021/12/12 06:16:18;;;;;;;13.07;7.30;;;-1.30;99.90;;;;;;4983768;28;20427;-57
2021/12/12 06:18:48;;;;;;;14.10;7.23;;;-1.30;99.90;;;;;;5000616;28;20511;-57
2021/12/12 06:21:14;;;;;;;13.10;7.63;;;-1.30;99.90;;;;;;4984071;28;20952;-56
2021/12/12 06:23:40;;;;;;;13.47;8.07;;;-1.40;99.90;;;;;;4984352;28;20426;-56
2021/12/12 06:26:06;;;;;;;11.47;7.30;;;-1.40;99.90;;;;;;4984608;28;20475;-57
2021/12/12 06:28:36;;;;;;;14.20;7.33;;;-1.40;99.90;;;;;;4988733;28;20455;-56
2021/12/12 06:31:03;;;;;;;15.77;7.23;;;-1.40;99.90;;;;;;4985733;28;20236;-57
2021/12/12 06:33:29;;;;;;;14.17;7.50;;;-1.50;99.90;;;;;;5001014;28;20480;-49
2021/12/12 06:35:55;;;;;;;14.13;7.90;;;-1.50;99.90;;;;;;4985345;28;20422;-55
2021/12/12 06:38:22;;;;;;;13.00;6.80;;;-1.50;99.90;;;;;;4987106;28;20422;-58
2021/12/12 06:40:48;;;;;;;13.97;7.27;;;-1.50;99.90;;;;;;4987505;28;20984;-55
2021/12/12 06:43:17;;;;;;;14.10;8.27;;;-1.60;99.90;;;;;;5000801;28;20476;-57
2021/12/12 06:45:43;;;;;;;12.13;7.17;;;-1.60;99.90;;;;;;4987505;28;20784;-56
2021/12/12 06:48:11;;;;;;;15.90;8.33;;;-1.60;99.90;;;;;;4985573;28;20422;-57
2021/12/12 06:50:40;;;;;;;13.50;7.60;;;-1.60;99.90;;;;;;4987497;28;20241;-57
2021/12/12 06:53:07;;;;;;;12.30;7.10;;;-1.60;99.90;;;;;;4990891;28;20437;-55
2021/12/12 06:55:36;;;;;;;14.03;7.67;;;-1.70;99.90;;;;;;4991803;28;20473;-56
2021/12/12 06:58:05;;;;;;;19.00;7.83;;;-1.70;99.90;;;;;;4989929;28;20434;-55
2021/12/12 07:00:32;;;;;;;13.40;7.23;;;-1.70;99.90;;;;;;4984877;28;21014;-56
2021/12/12 07:02:58;;;;;;;13.80;7.50;;;-1.80;99.90;;;;;;4989015;28;20418;-57
2021/12/12 07:05:27;;;;;;;41.73;8.03;;;-1.80;99.90;;;;;;4988908;28;20484;-58
2021/12/12 07:07:54;;;;;;;67.60;8.63;;;-1.80;99.90;;;;;;5004437;28;20428;-57
2021/12/12 07:10:25;;;;;;;124.63;10.37;;;-2.00;99.90;;;;;;4988774;28;20451;-57
2021/12/12 07:12:55;;;;;;;161.80;12.00;;;-2.00;99.90;;;;;;5003706;28;20809;-55
2021/12/12 07:15:27;;;;;;;414.57;19.20;;;-2.00;99.90;;;;;;4985768;28;20449;-57
2021/12/12 07:17:57;;;;;;;382.27;20.27;;;-2.10;99.90;;;;;;5001195;28;20425;-54
2021/12/12 07:20:23;;;;;;;275.90;18.17;;;-2.20;99.90;;;;;;5003896;28;20794;-55
2021/12/12 07:22:50;;;;;;;28.60;8.70;;;-2.20;99.90;;;;;;4986972;28;20529;-57
2021/12/12 07:25:16;;;;;;;26.30;8.23;;;-2.20;99.90;;;;;;5005421;28;21088;-55
2021/12/12 07:27:42;;;;;;;18.23;7.90;;;-2.30;99.90;;;;;;5006705;28;20421;-57
2021/12/12 07:30:09;;;;;;;16.40;8.47;;;-2.30;99.90;;;;;;5010192;28;20503;-60
2021/12/12 07:32:39;;;;;;;21.40;10.30;;;-2.30;99.90;;;;;;5012776;28;20442;-60
2021/12/12 07:35:08;;;;;;;17.40;9.90;;;-2.20;99.90;;;;;;4993094;28;20939;-54
2021/12/12 07:37:35;;;;;;;15.80;8.90;;;-2.20;99.90;;;;;;4988979;28;20445;-57
2021/12/12 07:40:01;;;;;;;18.90;8.73;;;-2.20;99.90;;;;;;4987864;28;20841;-58
2021/12/12 07:42:28;;;;;;;20.50;9.97;;;-2.20;99.90;;;;;;4987989;28;20529;-56
2021/12/12 07:44:54;;;;;;;17.80;9.17;;;-2.20;99.90;;;;;;4991632;28;20425;-57
2021/12/12 07:47:20;;;;;;;13.00;8.03;;;-2.20;99.90;;;;;;4990922;28;20762;-57
2021/12/12 07:49:48;;;;;;;13.40;7.97;;;-2.20;99.90;;;;;;4988742;28;20423;-56
2021/12/12 07:52:18;;;;;;;16.50;8.20;;;-2.20;99.90;;;;;;4989829;28;20209;-56
2021/12/12 07:54:46;;;;;;;73.17;8.37;;;-2.20;99.90;;;;;;4988170;28;20765;-57
2021/12/12 07:57:14;;;;;;;84.97;9.77;;;-2.30;99.90;;;;;;4987327;28;20846;-58
2021/12/12 07:59:40;;;;;;;52.93;8.40;;;-2.30;99.90;;;;;;4989831;28;20963;-56
2021/12/12 08:02:08;;;;;;;75.27;8.47;;;-2.40;99.90;;;;;;4985751;28;20452;-56
2021/12/12 08:04:35;;;;;;;43.97;7.53;;;-2.40;99.90;;;;;;4987712;28;20423;-58
2021/12/12 08:07:01;;;;;;;70.30;8.83;;;-2.40;99.90;;;;;;4987858;28;21002;-58
2021/12/12 08:09:28;;;;;;;24.43;7.27;;;-2.30;99.90;;;;;;4996956;28;20439;-56
2021/12/12 08:11:55;;;;;;;16.70;7.43;;;-2.30;99.90;;;;;;4981385;28;20868;-54
2021/12/12 08:14:24;;;;;;;13.70;7.13;;;-2.30;99.90;;;;;;4982532;28;20453;-53
2021/12/12 08:16:51;;;;;;;16.10;7.07;;;-2.30;99.90;;;;;;4987355;28;20455;-54
2021/12/12 08:19:19;;;;;;;13.90;6.53;;;-2.20;99.90;;;;;;4986723;28;21824;-54
2021/12/12 08:21:46;;;;;;;14.10;7.53;;;-2.20;99.90;;;;;;4983234;28;20529;-56
2021/12/12 08:24:13;;;;;;;14.20;6.50;;;-2.10;99.90;;;;;;4984327;28;20438;-54
2021/12/12 08:26:41;;;;;;;28.07;7.80;;;-2.10;99.90;;;;;;5001377;28;20976;-56
2021/12/12 08:29:08;;;;;;;17.53;6.50;;;-2.10;99.90;;;;;;4985958;28;20435;-55
2021/12/12 08:31:35;;;;;;;13.57;7.70;;;-2.10;99.90;;;;;;4984794;28;20540;-54
2021/12/12 08:34:02;;;;;;;13.33;7.20;;;-2.10;99.90;;;;;;5008009;28;20433;-54
2021/12/12 08:36:28;;;;;;;11.53;7.40;;;-2.00;99.90;;;;;;4985693;28;20418;-54
2021/12/12 08:38:54;;;;;;;9.57;6.00;;;-2.10;99.90;;;;;;5000497;28;20436;-55
2021/12/12 08:41:20;;;;;;;9.40;5.40;;;-2.00;99.90;;;;;;4982831;28;21067;-55
2021/12/12 08:43:46;;;;;;;12.43;7.80;;;-2.00;99.90;;;;;;4997443;28;20570;-54
2021/12/12 08:46:15;;;;;;;14.13;7.07;;;-2.00;99.90;;;;;;4984139;28;22511;-56
2021/12/12 08:48:49;;;;;;;21.97;10.77;;;-1.90;99.90;;;;;;4981967;28;20520;-56
2021/12/12 08:51:29;;;;;;;19.33;10.57;;;-1.90;99.90;;;;;;4985006;28;20468;-55
2021/12/12 08:54:01;;;;;;;18.60;10.00;;;-1.80;99.90;;;;;;4985208;28;21154;-56
2021/12/12 08:56:42;;;;;;;16.07;10.43;;;-1.60;99.90;;;;;;4984472;28;20967;-54
2021/12/12 08:59:10;;;;;;;16.70;9.30;;;-1.50;99.90;;;;;;4985008;28;20430;-54
2021/12/12 09:01:39;;;;;;;16.20;9.13;;;-1.30;99.90;;;;;;4996572;28;21038;-54
2021/12/12 09:04:14;;;;;;;17.00;10.03;;;-1.20;99.90;;;;;;4982123;28;20437;-61
2021/12/12 09:07:04;;;;;;;18.10;8.87;;;-1.00;99.90;;;;;;4979554;28;21105;-55
2021/12/12 09:09:38;;;;;;;13.30;8.90;;;-0.90;99.90;;;;;;4984389;28;20537;-55
2021/12/12 09:12:06;;;;;;;17.20;9.60;;;-0.80;99.90;;;;;;4982978;28;21057;-55
2021/12/12 09:14:46;;;;;;;13.57;8.30;;;-0.70;99.90;;;;;;4985846;28;20444;-55
2021/12/12 09:17:25;;;;;;;13.03;8.33;;;-0.60;99.90;;;;;;4984694;28;20453;-55
2021/12/12 09:20:03;;;;;;;16.77;9.13;;;-0.50;99.90;;;;;;4982864;28;20461;-56
2021/12/12 09:22:44;;;;;;;13.00;8.20;;;-0.50;99.90;;;;;;4979272;28;20871;-54
2021/12/12 09:25:34;;;;;;;15.93;8.50;;;-0.30;99.90;;;;;;4985260;28;20418;-54
2021/12/12 09:28:12;;;;;;;15.00;7.63;;;-0.20;99.90;;;;;;4985400;28;20546;-54
2021/12/12 09:30:38;;;;;;;15.00;9.17;;;-0.20;99.90;;;;;;4983334;28;20497;-54
2021/12/12 09:33:20;;;;;;;15.53;8.43;;;-0.20;99.90;;;;;;4980220;28;20880;-55
2021/12/12 09:35:55;;;;;;;13.20;8.43;;;-0.20;99.90;;;;;;4980252;28;20461;-55
2021/12/12 09:38:29;;;;;;;13.70;8.77;;;-0.20;99.90;;;;;;4977258;28;20976;-54
2021/12/12 09:41:30;;;;;;;15.20;8.30;;;-0.20;99.90;;;;;;4972379;28;20483;-55
2021/12/12 09:44:17;;;;;;;16.60;9.30;;;-0.20;99.90;;;;;;4977010;28;20442;-55
2021/12/12 09:47:01;;;;;;;14.30;8.47;;;-0.20;99.90;;;;;;4982063;28;20437;-55
2021/12/12 09:52:23;;;;;;;15.00;8.30;;;-0.30;99.90;;;;;;4977769;28;21481;-56
2021/12/12 09:54:56;;;;;;;14.27;8.70;;;-0.20;99.90;;;;;;4980209;28;20511;-56
2021/12/12 09:57:53;;;;;;;14.67;8.93;;;-0.10;99.90;;;;;;4981747;28;21058;-56
2021/12/12 10:00:24;;;;;;;17.63;8.70;;;0.00;99.90;;;;;;4976761;28;20512;-55
2021/12/12 10:03:18;;;;;;;13.60;8.00;;;0.20;99.90;;;;;;4982398;28;20437;-55
2021/12/12 10:05:59;;;;;;;17.93;9.60;;;0.30;99.90;;;;;;4979212;28;20992;-53
2021/12/12 10:08:43;;;;;;;21.33;9.77;;;0.50;99.90;;;;;;4981960;28;20426;-55
2021/12/12 10:11:41;;;;;;;18.50;9.33;;;0.70;99.90;;;;;;4982491;28;20987;-57
2021/12/12 10:14:18;;;;;;;13.67;8.60;;;0.90;99.90;;;;;;4979327;28;20503;-55
2021/12/12 10:16:55;;;;;;;11.83;7.50;;;0.90;99.90;;;;;;4999165;28;20441;-56
2021/12/12 10:19:21;;;;;;;12.10;7.47;;;1.10;99.90;;;;;;4984546;28;20533;-55
2021/12/12 10:22:05;;;;;;;10.00;6.10;;;1.20;99.90;;;;;;4983972;28;21122;-56
2021/12/12 10:24:35;;;;;;;8.77;5.20;;;1.30;99.90;;;;;;4999546;28;20191;-56
2021/12/12 10:27:12;;;;;;;13.87;7.60;;;1.50;99.90;;;;;;4982695;28;20480;-56
2021/12/12 10:29:53;;;;;;;9.70;6.17;;;1.70;99.90;;;;;;4984324;28;20438;-55
2021/12/12 10:32:24;;;;;;;14.33;7.80;;;1.80;99.90;;;;;;4981989;28;21327;-56
2021/12/12 10:34:59;;;;;;;7.93;5.20;;;1.90;99.90;;;;;;4982900;28;20527;-53
2021/12/12 10:37:27;;;;;;;6.23;4.40;;;2.00;99.90;;;;;;4979240;28;20441;-56
2021/12/12 10:39:58;;;;;;;12.13;5.70;;;2.10;99.90;;;;;;4983674;28;20450;-55
2021/12/12 10:42:29;;;;;;;11.57;7.23;;;2.20;99.90;;;;;;4987189;28;20548;-56
2021/12/12 10:45:04;;;;;;;15.73;6.83;;;2.20;99.90;;;;;;4983156;28;20949;-56
2021/12/12 10:47:33;;;;;;;9.67;5.60;;;2.30;99.90;;;;;;4985878;28;20666;-56
2021/12/12 10:50:26;;;;;;;10.17;6.70;;;2.40;99.90;;;;;;4983978;28;21002;-55
2021/12/12 10:53:05;;;;;;;9.70;6.13;;;2.40;99.90;;;;;;4980648;28;20504;-56
2021/12/12 10:55:36;;;;;;;10.70;6.60;;;2.40;99.90;;;;;;4985065;28;20423;-56
2021/12/12 10:58:15;;;;;;;17.87;6.93;;;2.50;99.90;;;;;;5004553;28;20461;-57
2021/12/12 11:01:01;;;;;;;9.13;6.40;;;2.70;99.90;;;;;;4994660;28;20474;-55
2021/12/12 11:03:34;;;;;;;8.40;6.03;;;2.90;99.90;;;;;;4980769;28;20463;-52
2021/12/12 11:06:11;;;;;;;10.20;6.63;;;3.10;99.90;;;;;;4980500;28;20510;-58
2021/12/12 11:08:42;;;;;;;10.90;6.90;;;3.20;99.90;;;;;;4983407;28;20765;-56
2021/12/12 11:11:33;;;;;;;9.03;6.00;;;3.30;99.90;;;;;;4993431;28;20466;-56
2021/12/12 11:14:20;;;;;;;8.10;6.10;;;3.30;99.90;;;;;;4981234;28;20436;-58
2021/12/12 11:17:17;;;;;;;8.10;5.90;;;3.20;99.90;;;;;;4981224;28;20423;-58
2021/12/12 11:19:58;;;;;;;11.03;6.27;;;3.10;99.90;;;;;;4983940;28;20460;-56
2021/12/12 11:22:44;;;;;;;12.07;6.20;;;3.10;99.90;;;;;;4985953;28;20454;-56
2021/12/12 11:25:34;;;;;;;10.13;6.80;;;3.00;99.90;;;;;;4986670;28;20455;-56
2021/12/12 11:28:21;;;;;;;9.20;6.23;;;2.90;99.90;;;;;;4984548;28;20503;-58
2021/12/12 11:30:55;;;;;;;11.87;6.70;;;2.90;99.90;;;;;;4984888;28;20452;-55
2021/12/12 11:33:24;;;;;;;9.63;6.13;;;2.90;99.90;;;;;;4998357;28;20828;-57
2021/12/12 11:35:53;;;;;;;7.03;5.27;;;2.90;99.90;;;;;;4978261;28;20480;-58
2021/12/12 11:38:40;;;;;;;11.63;6.20;;;2.90;99.90;;;;;;4975527;28;20436;-58
2021/12/12 11:41:20;;;;;;;14.43;5.87;;;2.80;99.90;;;;;;4996049;28;20531;-56
2021/12/12 11:44:13;;;;;;;9.20;5.83;;;2.80;99.90;;;;;;4983856;28;20431;-58
2021/12/12 11:47:03;;;;;;;10.60;6.50;;;2.80;99.90;;;;;;4984764;28;20975;-56
2021/12/12 11:49:44;;;;;;;11.00;7.10;;;2.80;99.90;;;;;;4982258;28;21099;-56
2021/12/12 11:52:19;;;;;;;10.40;6.80;;;2.80;99.90;;;;;;4980260;28;20451;-57
2021/12/12 11:55:03;;;;;;;11.63;7.90;;;2.70;99.90;;;;;;4982222;28;20435;-58
2021/12/12 11:57:34;;;;;;;9.43;6.73;;;2.70;99.90;;;;;;4992657;28;20432;-57
2021/12/12 12:00:17;;;;;;;11.77;7.20;;;2.70;99.90;;;;;;4982989;28;20492;-57
2021/12/12 12:03:08;;;;;;;14.07;7.10;;;2.70;99.90;;;;;;4980657;28;20452;-56
2021/12/12 12:05:42;;;;;;;12.40;7.90;;;2.70;99.90;;;;;;4982543;28;20511;-55
2021/12/12 12:08:51;;;;;;;12.83;7.73;;;2.70;99.90;;;;;;4986086;28;20430;-58
2021/12/12 12:11:17;;;;;;;10.90;7.70;;;2.70;99.90;;;;;;4970997;28;20479;-57
2021/12/12 12:13:56;;;;;;;12.93;7.70;;;2.70;99.90;;;;;;4981927;28;20440;-57
2021/12/12 12:16:44;;;;;;;12.70;7.90;;;2.70;99.90;;;;;;4988768;28;20215;-58
2021/12/12 12:19:21;;;;;;;10.90;7.10;;;2.70;99.90;;;;;;4995212;28;20962;-57
2021/12/12 12:21:52;;;;;;;12.23;7.50;;;2.70;99.90;;;;;;4983585;28;20464;-57
2021/12/12 12:24:22;;;;;;;12.63;7.40;;;2.70;99.90;;;;;;4982278;28;20443;-56
2021/12/12 12:27:04;;;;;;;9.43;6.50;;;2.70;99.90;;;;;;4986617;28;20424;-58
2021/12/12 12:29:33;;;;;;;10.60;6.83;;;2.70;99.90;;;;;;4984584;28;20539;-57
2021/12/12 12:32:05;;;;;;;12.27;7.37;;;2.80;99.90;;;;;;4985552;28;20543;-56
2021/12/12 12:34:52;;;;;;;14.43;7.83;;;2.80;99.90;;;;;;4989350;28;20439;-57
2021/12/12 12:37:55;;;;;;;13.47;8.03;;;2.80;99.90;;;;;;4982608;28;20428;-57
2021/12/12 12:40:58;;;;;;;17.10;8.80;;;2.80;99.90;;;;;;4976443;28;20514;-56
2021/12/12 12:44:01;;;;;;;15.20;7.13;;;2.90;99.90;;;;;;4990248;28;20481;-56
2021/12/12 12:46:46;;;;;;;14.23;8.13;;;2.90;99.90;;;;;;4982289;28;20431;-56
2021/12/12 12:49:49;;;;;;;14.90;8.90;;;2.90;99.90;;;;;;4980381;28;20472;-58
2021/12/12 12:52:31;;;;;;;14.90;9.40;;;2.90;99.90;;;;;;4986487;28;20459;-58
2021/12/12 12:54:59;;;;;;;13.57;8.77;;;2.90;99.90;;;;;;4980572;28;20442;-57
2021/12/12 12:57:36;;;;;;;14.87;7.93;;;3.00;99.90;;;;;;5004136;28;20436;-58
2021/12/12 13:00:16;;;;;;;18.47;8.80;;;3.10;99.90;;;;;;4998649;28;20541;-56
2021/12/12 13:03:03;;;;;;;14.33;8.80;;;3.10;99.90;;;;;;4979903;28;20455;-56
2021/12/12 13:06:00;;;;;;;16.23;9.50;;;3.10;99.90;;;;;;4981939;28;21004;-56
2021/12/12 13:09:09;;;;;;;13.87;8.70;;;3.10;99.90;;;;;;4979475;28;20499;-57
2021/12/12 13:11:53;;;;;;;14.20;8.63;;;3.10;99.90;;;;;;4982099;28;20485;-58
2021/12/12 13:14:35;;;;;;;13.50;8.90;;;3.10;99.90;;;;;;4981691;28;20641;-57
2021/12/12 13:17:33;;;;;;;15.30;9.40;;;3.10;99.90;;;;;;4994003;28;21174;-55
2021/12/12 13:20:07;;;;;;;12.00;7.93;;;3.20;99.90;;;;;;4980992;28;20467;-60
2021/12/12 13:22:58;;;;;;;14.43;9.30;;;3.20;99.90;;;;;;4981851;28;20455;-58
2021/12/12 13:25:32;;;;;;;17.27;9.70;;;3.20;99.90;;;;;;4982922;28;20538;-57
2021/12/12 13:28:17;;;;;;;15.50;9.77;;;3.20;99.90;;;;;;4977267;28;20439;-55
2021/12/12 13:31:02;;;;;;;15.40;9.23;;;3.10;99.90;;;;;;4981143;28;20479;-56
2021/12/12 13:33:41;;;;;;;18.30;8.60;;;3.10;99.90;;;;;;4979353;28;20473;-54
2021/12/12 13:36:28;;;;;;;12.83;8.93;;;3.10;99.90;;;;;;4982223;28;20444;-56